Time;durP1;ratioP1;P1;durP2;ratioP2;P2;SDS_P1;SDS_P2;PMS_P1;PMS_P2;Temp;Humidity;BMP_temperature;BMP_pressure;BME280_temperature;BME280_humidity;BME280_pressure;Samples;Min_cycle;Max_cycle;Signal;HPM_P1;HPM_P2
2022/08/14 00:02:07;;;;;;;3.65;2.85;;;;;;;19.94;44.64;99176.25;5072335;28;20059;-67
2022/08/14 00:04:36;;;;;;;4.95;2.58;;;;;;;19.89;44.57;99170.50;5086567;28;20051;-67
2022/08/14 00:07:03;;;;;;;4.07;2.65;;;;;;;19.90;44.60;99164.16;5102230;28;20481;-67
2022/08/14 00:09:30;;;;;;;3.72;2.67;;;;;;;19.92;44.74;99164.84;5103720;28;20138;-67
2022/08/14 00:11:57;;;;;;;3.42;2.17;;;;;;;19.93;45.01;99166.53;5092660;28;20066;-70
2022/08/14 00:14:24;;;;;;;3.60;2.58;;;;;;;19.87;45.97;99164.47;5091654;28;20138;-68
2022/08/14 00:16:51;;;;;;;5.20;2.53;;;;;;;19.90;45.12;99158.81;5092575;28;20573;-67
2022/08/14 00:19:18;;;;;;;4.55;3.33;;;;;;;20.01;44.03;99149.75;5092267;28;20063;-66
2022/08/14 00:21:46;;;;;;;6.47;3.47;;;;;;;20.09;44.73;99151.66;5092375;28;20059;-66
2022/08/14 00:24:12;;;;;;;4.25;3.38;;;;;;;20.15;44.19;99143.84;5091311;28;20074;-67
2022/08/14 00:26:39;;;;;;;7.03;3.10;;;;;;;20.19;44.02;99141.72;5092297;28;20048;-67
2022/08/14 00:29:06;;;;;;;10.23;3.30;;;;;;;20.25;44.16;99134.91;5091996;28;20052;-67
2022/08/14 00:31:32;;;;;;;5.53;3.20;;;;;;;20.23;44.11;99135.06;5091619;28;20537;-66
2022/08/14 00:33:59;;;;;;;3.83;2.55;;;;;;;20.25;43.79;99132.22;5091500;28;20044;-67
2022/08/14 00:36:25;;;;;;;4.28;2.90;;;;;;;20.25;43.93;99124.19;5092219;28;20071;-67
2022/08/14 00:38:53;;;;;;;8.70;3.55;;;;;;;20.14;44.77;99117.25;5091847;28;20048;-67
2022/08/14 00:41:19;;;;;;;4.95;2.92;;;;;;;20.10;43.99;99111.34;5092008;28;20059;-66
2022/08/14 00:43:46;;;;;;;3.50;2.75;;;;;;;20.11;44.78;99109.53;5091841;28;20048;-67
2022/08/14 00:46:14;;;;;;;3.63;2.55;;;;;;;20.05;44.04;99113.63;5091225;28;20055;-66
2022/08/14 00:48:40;;;;;;;3.80;2.55;;;;;;;20.14;43.23;99106.53;5091821;28;20044;-66
2022/08/14 00:51:09;;;;;;;3.72;2.70;;;;;;;20.16;43.70;99105.38;5094142;28;20044;-66
2022/08/14 00:53:36;;;;;;;3.20;2.60;;;;;;;20.20;43.33;99103.22;5092090;28;20062;-66
2022/08/14 00:56:06;;;;;;;3.88;3.40;;;;;;;20.25;43.08;99098.25;5091587;28;20051;-67
2022/08/14 00:58:36;;;;;;;7.70;2.72;;;;;;;20.27;43.96;99098.94;5096033;28;20086;-67
2022/08/14 01:01:06;;;;;;;6.38;3.20;;;;;;;20.24;42.89;99101.94;5100353;28;20577;-67
2022/08/14 01:03:38;;;;;;;5.00;2.92;;;;;;;20.22;43.49;99095.91;5107866;28;20055;-66
2022/08/14 01:06:07;;;;;;;3.33;2.28;;;;;;;20.18;43.92;99097.19;5099559;28;20063;-67
2022/08/14 01:08:35;;;;;;;3.80;2.97;;;;;;;20.10;44.39;99097.13;5091623;28;20044;-66
2022/08/14 01:11:05;;;;;;;5.55;3.28;;;;;;;20.00;44.81;99096.38;5091753;28;20059;-67
2022/08/14 01:13:35;;;;;;;7.10;2.80;;;;;;;19.91;44.93;99092.75;5091655;28;20050;-67
2022/08/14 01:16:04;;;;;;;3.90;3.08;;;;;;;19.78;45.25;99098.50;5090789;28;20131;-67
2022/08/14 01:21:17;;;;;;;4.10;2.53;;;;;;;19.69;45.69;99088.69;5091511;28;20059;-68
2022/08/14 01:23:48;;;;;;;4.45;3.47;;;;;;;19.65;46.22;99092.66;5091148;28;20048;-68
2022/08/14 01:26:19;;;;;;;6.13;3.67;;;;;;;19.57;46.40;99095.25;5090715;28;20117;-67
2022/08/14 01:28:47;;;;;;;6.28;3.67;;;;;;;19.49;46.41;99094.16;5091098;28;20051;-68
2022/08/14 01:31:16;;;;;;;5.70;4.65;;;;;;;19.43;46.42;99089.38;5091121;28;20058;-67
2022/08/14 01:33:46;;;;;;;5.72;3.72;;;;;;;19.38;46.78;99089.00;5091127;28;20548;-66
2022/08/14 01:36:16;;;;;;;7.95;4.00;;;;;;;19.38;45.72;99089.00;5090517;28;20048;-68
2022/08/14 01:38:47;;;;;;;5.07;3.30;;;;;;;19.29;46.53;99088.03;5091244;28;20044;-67
2022/08/14 01:41:16;;;;;;;4.82;3.30;;;;;;;19.29;46.25;99079.19;5090514;28;20423;-68
2022/08/14 01:43:47;;;;;;;6.75;3.40;;;;;;;19.28;46.72;99080.19;5090834;28;20050;-66
2022/08/14 01:46:15;;;;;;;3.75;3.00;;;;;;;19.24;46.98;99082.31;5090136;28;20040;-67
2022/08/14 01:48:43;;;;;;;6.50;3.47;;;;;;;19.18;47.39;99079.41;5090723;28;20399;-67
2022/08/14 01:51:10;;;;;;;5.07;3.28;;;;;;;19.13;47.13;99084.34;5091024;28;20063;-67
2022/08/14 01:53:38;;;;;;;3.15;2.78;;;;;;;19.07;47.47;99085.75;5090199;28;20048;-65
2022/08/14 01:56:06;;;;;;;3.55;2.53;;;;;;;19.01;47.47;99079.19;5089709;28;20470;-68
2022/08/14 01:58:33;;;;;;;3.53;2.67;;;;;;;19.04;47.25;99081.53;5094928;28;20044;-68
2022/08/14 02:01:00;;;;;;;3.72;3.33;;;;;;;19.10;47.00;99080.13;5098003;28;20055;-68
2022/08/14 02:03:29;;;;;;;5.22;3.25;;;;;;;19.04;47.54;99086.91;5090265;28;20048;-69
2022/08/14 02:05:58;;;;;;;3.30;2.60;;;;;;;19.07;46.81;99083.94;5089977;28;20051;-67
2022/08/14 02:08:27;;;;;;;3.20;2.72;;;;;;;19.09;46.94;99076.59;5091344;28;20052;-66
2022/08/14 02:11:15;;;;;;;6.65;3.00;;;;;;;19.03;47.50;99084.38;5091881;28;20465;-68
2022/08/14 02:13:45;;;;;;;3.83;2.97;;;;;;;18.97;47.73;99079.63;5087678;28;20051;-67
2022/08/14 02:16:12;;;;;;;5.82;3.60;;;;;;;18.88;47.87;99078.69;5089634;28;20052;-67
2022/08/14 02:18:39;;;;;;;4.60;3.30;;;;;;;18.82;48.34;99074.75;5091088;28;20048;-68
2022/08/14 02:21:06;;;;;;;3.83;3.10;;;;;;;18.71;48.69;99074.91;5092459;28;20513;-68
2022/08/14 02:23:32;;;;;;;4.25;3.25;;;;;;;18.68;48.44;99075.19;5092280;28;20189;-67
2022/08/14 02:26:00;;;;;;;5.82;2.88;;;;;;;18.66;48.40;99072.66;5091807;28;20052;-69
2022/08/14 02:28:30;;;;;;;4.50;3.15;;;;;;;18.56;48.88;99065.69;5092877;28;20073;-68
2022/08/14 02:30:58;;;;;;;3.40;2.70;;;;;;;18.49;48.61;99072.56;5092774;28;20509;-66
2022/08/14 02:33:26;;;;;;;5.18;2.70;;;;;;;18.41;49.20;99063.44;5092908;28;20051;-67
2022/08/14 02:35:54;;;;;;;5.03;3.05;;;;;;;18.36;49.13;99062.16;5089690;28;20139;-67
2022/08/14 02:38:20;;;;;;;3.47;2.83;;;;;;;18.41;49.59;99065.25;5090390;28;20040;-66
2022/08/14 02:40:47;;;;;;;3.22;2.53;;;;;;;18.36;49.89;99064.84;5090295;28;20078;-66
2022/08/14 02:43:14;;;;;;;4.13;2.92;;;;;;;18.26;49.98;99058.69;5089715;28;20048;-65
2022/08/14 02:45:41;;;;;;;4.43;3.33;;;;;;;18.21;49.79;99054.63;5089161;28;20415;-67
2022/08/14 02:48:09;;;;;;;5.82;3.72;;;;;;;18.19;50.31;99061.09;5089415;28;20081;-66
2022/08/14 02:50:36;;;;;;;4.40;3.28;;;;;;;18.18;50.34;99054.91;5089746;28;20052;-65
2022/08/14 02:53:03;;;;;;;7.60;4.13;;;;;;;18.18;50.26;99046.06;5091473;28;20062;-67
2022/08/14 02:55:31;;;;;;;8.68;4.28;;;;;;;18.17;50.25;99047.88;5100971;28;20051;-67
2022/08/14 02:57:57;;;;;;;7.10;3.85;;;;;;;18.14;50.46;99052.66;5103433;28;20071;-67
2022/08/14 03:00:24;;;;;;;11.95;4.28;;;;;;;18.14;49.69;99042.84;5082651;28;20044;-67
2022/08/14 03:02:51;;;;;;;4.25;3.42;;;;;;;18.08;50.24;99046.06;5069333;28;20455;-66
2022/08/14 03:05:19;;;;;;;7.25;3.55;;;;;;;17.98;51.38;99045.22;5068843;28;20066;-68
2022/08/14 03:07:45;;;;;;;8.55;3.38;;;;;;;17.88;51.58;99033.72;5069544;28;20051;-67
2022/08/14 03:10:12;;;;;;;3.85;3.00;;;;;;;17.81;51.86;99028.94;5069674;28;20045;-66
2022/08/14 03:12:39;;;;;;;4.30;3.58;;;;;;;17.77;52.05;99024.88;5081523;28;20139;-65
2022/08/14 03:15:09;;;;;;;7.70;3.22;;;;;;;17.75;51.78;99031.31;5088869;28;20048;-67
2022/08/14 03:17:36;;;;;;;10.43;3.70;;;;;;;17.69;51.90;99034.53;5089318;28;20148;-68
2022/08/14 03:20:05;;;;;;;5.50;3.30;;;;;;;17.66;52.17;99034.81;5089330;28;20051;-67
2022/08/14 03:22:33;;;;;;;4.10;3.47;;;;;;;17.62;52.46;99033.41;5089467;28;20052;-66
2022/08/14 03:25:01;;;;;;;6.22;3.80;;;;;;;17.60;52.76;99039.72;5088782;28;20048;-67
2022/08/14 03:27:28;;;;;;;7.90;4.38;;;;;;;17.55;53.18;99033.13;5089291;28;20074;-68
2022/08/14 03:29:55;;;;;;;4.45;3.47;;;;;;;17.51;53.10;99037.03;5089493;28;20080;-67
2022/08/14 03:32:23;;;;;;;6.15;3.22;;;;;;;17.44;53.60;99036.75;5089391;28;20067;-66
2022/08/14 03:34:50;;;;;;;4.80;3.47;;;;;;;17.36;53.54;99032.09;5088556;28;20044;-66
2022/08/14 03:37:17;;;;;;;5.20;4.18;;;;;;;17.38;53.71;99045.31;5089281;28;20055;-67
2022/08/14 03:39:45;;;;;;;3.80;3.15;;;;;;;17.34;54.48;99034.06;5089349;28;20083;-66
2022/08/14 03:42:12;;;;;;;4.18;3.45;;;;;;;17.32;54.09;99030.69;5089146;28;20066;-67
2022/08/14 03:44:41;;;;;;;8.43;3.50;;;;;;;17.32;53.74;99021.84;5088473;28;20048;-67
2022/08/14 03:47:08;;;;;;;6.93;3.58;;;;;;;17.35;53.34;99025.09;5089201;28;20122;-68
2022/08/14 03:49:35;;;;;;;5.50;3.72;;;;;;;17.32;54.15;99030.69;5096851;28;20039;-68
2022/08/14 03:52:03;;;;;;;6.40;3.85;;;;;;;17.25;54.18;99034.88;5100727;28;20067;-68
2022/08/14 03:54:34;;;;;;;6.47;3.40;;;;;;;17.21;54.58;99025.47;5099697;28;20075;-67
2022/08/14 03:57:02;;;;;;;4.25;3.05;;;;;;;17.17;54.55;99035.56;5089100;28;20052;-66
2022/08/14 03:59:29;;;;;;;3.85;3.22;;;;;;;17.15;54.28;99031.34;5089320;28;20131;-67
2022/08/14 04:01:56;;;;;;;4.40;3.58;;;;;;;17.15;54.15;99024.22;5069444;28;20060;-66
2022/08/14 04:04:22;;;;;;;7.53;3.17;;;;;;;17.14;54.22;99024.34;5071768;28;20145;-66
2022/08/14 04:06:50;;;;;;;5.90;3.72;;;;;;;17.11;54.43;99021.97;5072870;28;20048;-66
2022/08/14 04:09:17;;;;;;;7.72;3.17;;;;;;;17.06;54.58;99019.69;5087822;28;20048;-67
2022/08/14 04:11:44;;;;;;;4.43;3.55;;;;;;;17.03;54.69;99022.63;5093284;28;20049;-67
2022/08/14 04:14:13;;;;;;;5.55;3.70;;;;;;;17.10;54.10;99021.09;5092110;28;20581;-65
2022/08/14 04:16:44;;;;;;;8.40;4.18;;;;;;;17.11;54.66;99017.47;5092560;28;20052;-66
2022/08/14 04:19:11;;;;;;;3.95;3.20;;;;;;;17.06;54.38;99022.34;5092196;28;20498;-67
2022/08/14 04:21:37;;;;;;;6.30;3.80;;;;;;;17.02;54.72;99014.78;5089059;28;20040;-67
2022/08/14 04:24:04;;;;;;;4.43;3.67;;;;;;;16.95;55.15;99009.97;5091784;28;20074;-67
2022/08/14 04:26:31;;;;;;;5.32;3.67;;;;;;;16.94;54.97;99010.97;5091840;28;20048;-67
2022/08/14 04:28:59;;;;;;;4.55;4.00;;;;;;;16.94;55.32;99002.13;5092347;28;20051;-67
2022/08/14 04:31:27;;;;;;;5.07;4.32;;;;;;;16.90;55.45;98993.56;5092323;28;20503;-66
2022/08/14 04:33:54;;;;;;;4.65;3.92;;;;;;;16.92;55.10;98993.44;5091578;28;20459;-66
2022/08/14 04:36:21;;;;;;;4.57;3.78;;;;;;;16.95;55.00;98993.16;5091895;28;20055;-67
2022/08/14 04:44:16;;;;;;;4.68;3.78;;;;;;;16.97;55.60;98985.88;5091350;28;20726;-66
2022/08/14 04:48:11;;;;;;;9.07;4.18;;;;;;;17.04;55.38;98984.38;5100677;28;20504;-67
2022/08/14 04:49:31;;;;;;;4.47;3.28;;;;;;;17.11;55.43;98979.34;5112244;28;20052;-67
2022/08/14 04:51:59;;;;;;;5.13;3.58;;;;;;;17.17;54.92;98976.94;5092673;28;20059;-66
2022/08/14 04:54:26;;;;;;;6.00;3.75;;;;;;;17.27;55.21;98974.31;5091172;28;20055;-67
2022/08/14 04:56:53;;;;;;;5.38;4.15;;;;;;;17.29;55.23;98972.34;5091840;28;21009;-68
2022/08/14 04:59:20;;;;;;;4.00;3.60;;;;;;;17.36;54.87;98970.81;5091441;28;20055;-65
2022/08/14 05:01:48;;;;;;;5.88;3.80;;;;;;;17.41;54.99;98981.06;5073312;28;20057;-66
2022/08/14 05:04:17;;;;;;;5.05;3.85;;;;;;;17.46;55.33;98973.50;5074522;28;20530;-67
2022/08/14 05:06:43;;;;;;;5.07;3.47;;;;;;;17.51;55.15;98960.59;5091773;28;20105;-66
2022/08/14 05:09:10;;;;;;;6.97;4.40;;;;;;;17.57;55.10;98960.03;5091607;28;20047;-66
2022/08/14 05:11:37;;;;;;;6.30;4.20;;;;;;;17.67;54.93;98956.50;5091353;28;20048;-66
2022/08/14 05:14:04;;;;;;;6.57;4.10;;;;;;;17.75;55.20;98954.84;5090765;28;20048;-67
2022/08/14 05:16:31;;;;;;;4.13;3.40;;;;;;;17.84;54.93;98958.50;5090293;28;20048;-67
2022/08/14 05:18:59;;;;;;;5.93;4.47;;;;;;;17.93;54.74;98956.81;5091034;28;20044;-67
2022/08/14 05:21:27;;;;;;;5.22;3.90;;;;;;;17.99;55.22;98958.88;5091319;28;20152;-67
2022/08/14 05:23:54;;;;;;;6.22;3.92;;;;;;;18.07;55.26;98956.38;5090783;28;20044;-68
2022/08/14 05:26:21;;;;;;;7.30;3.80;;;;;;;18.19;55.49;98959.72;5090888;28;20060;-66
2022/08/14 05:28:47;;;;;;;5.43;4.00;;;;;;;18.26;55.39;98955.47;5091248;28;20048;-67
2022/08/14 05:31:16;;;;;;;6.60;4.30;;;;;;;18.32;55.21;98949.56;5091086;28;20380;-67
2022/08/14 05:33:43;;;;;;;4.28;3.78;;;;;;;18.43;55.12;98951.19;5090906;28;20569;-65
2022/08/14 05:36:14;;;;;;;6.03;4.97;;;;;;;18.52;55.59;98953.00;5090195;28;20052;-68
2022/08/14 05:38:43;;;;;;;4.95;4.00;;;;;;;18.59;55.65;98958.59;5090830;28;20044;-67
2022/08/14 05:41:11;;;;;;;7.68;4.43;;;;;;;18.69;55.74;98951.38;5090536;28;20054;-67
2022/08/14 05:43:39;;;;;;;9.13;4.53;;;;;;;18.76;55.77;98959.69;5099080;28;20044;-67
2022/08/14 05:46:06;;;;;;;5.50;4.32;;;;;;;18.83;55.42;98956.25;5109039;28;20404;-66
2022/08/14 05:48:33;;;;;;;8.38;4.38;;;;;;;18.90;55.75;98947.63;5090572;28;20044;-66
2022/08/14 05:50:59;;;;;;;6.82;4.47;;;;;;;18.96;55.72;98957.75;5090803;28;20047;-68
2022/08/14 05:53:28;;;;;;;5.40;3.60;;;;;;;19.02;55.80;98947.28;5089947;28;20531;-68
2022/08/14 05:55:55;;;;;;;9.07;4.28;;;;;;;19.10;55.73;98946.56;5089925;28;20047;-67
2022/08/14 05:58:22;;;;;;;5.05;4.05;;;;;;;19.23;55.37;98952.34;5090722;28;20648;-67
2022/08/14 06:00:48;;;;;;;11.23;4.07;;;;;;;19.30;55.72;98945.41;5079117;28;20519;-67
2022/08/14 06:03:16;;;;;;;4.85;4.05;;;;;;;19.33;56.04;98943.44;5090347;28;20500;-68
2022/08/14 06:05:44;;;;;;;5.60;3.92;;;;;;;19.40;56.14;98936.50;5089429;28;20055;-68
2022/08/14 06:08:15;;;;;;;11.48;4.68;;;;;;;19.47;57.01;98937.56;5090415;28;20050;-67
2022/08/14 06:10:44;;;;;;;5.63;4.15;;;;;;;19.56;56.91;98925.94;5090539;28;20051;-67
2022/08/14 06:13:11;;;;;;;5.63;3.88;;;;;;;19.62;56.92;98927.16;5090263;28;20050;-68
2022/08/14 06:15:37;;;;;;;5.47;4.22;;;;;;;19.68;56.70;98927.41;5089690;28;20062;-67
2022/08/14 06:18:04;;;;;;;9.70;4.85;;;;;;;19.76;56.68;98921.28;5090121;28;20048;-68
2022/08/14 06:20:31;;;;;;;6.85;4.20;;;;;;;19.87;56.75;98928.22;5089828;28;20047;-68
2022/08/14 06:22:57;;;;;;;22.77;3.83;;;;;;;19.96;56.22;98929.97;5086645;28;20549;-67
2022/08/14 06:25:24;;;;;;;5.35;4.03;;;;;;;20.06;56.37;98927.16;5089367;28;20458;-69
2022/08/14 06:27:52;;;;;;;5.15;4.57;;;;;;;20.15;56.39;98921.72;5090081;28;20101;-67
2022/08/14 06:30:21;;;;;;;5.38;4.55;;;;;;;20.26;56.06;98909.91;5089769;28;20044;-69
2022/08/14 06:32:48;;;;;;;5.85;4.30;;;;;;;20.40;55.01;98907.63;5090421;28;20098;-67
2022/08/14 06:35:17;;;;;;;7.57;4.45;;;;;;;20.61;54.63;98908.09;5089133;28;20392;-68
2022/08/14 06:37:46;;;;;;;13.48;4.60;;;;;;;20.76;55.05;98902.97;5090638;28;20048;-66
2022/08/14 06:40:15;;;;;;;5.70;4.15;;;;;;;20.89;54.25;98902.50;5101570;28;20050;-68
2022/08/14 06:42:42;;;;;;;9.57;5.13;;;;;;;21.05;53.23;98899.84;5105782;28;20101;-67
2022/08/14 06:45:11;;;;;;;9.10;4.72;;;;;;;21.24;52.35;98906.78;5089037;28;20052;-67
2022/08/14 06:47:39;;;;;;;6.07;4.43;;;;;;;21.38;53.29;98902.56;5089554;28;20048;-66
2022/08/14 06:50:09;;;;;;;6.22;5.40;;;;;;;21.53;51.67;98897.41;5089867;28;20135;-67
2022/08/14 06:52:36;;;;;;;8.43;4.50;;;;;;;21.70;51.55;98909.81;5089100;28;20084;-66
2022/08/14 06:55:03;;;;;;;9.40;4.53;;;;;;;21.90;51.55;98910.31;5088856;28;20550;-67
2022/08/14 06:57:37;;;;;;;5.55;4.47;;;;;;;22.11;50.47;98901.72;5089454;28;20040;-65
2022/08/14 07:00:06;;;;;;;8.80;4.65;;;;;;;22.29;50.74;98894.31;5085375;28;20053;-68
2022/08/14 07:08:03;;;;;;;5.35;4.85;;;;;;;22.94;46.51;98895.88;5069551;28;20063;-66
2022/08/14 07:10:30;;;;;;;5.25;3.85;;;;;;;23.17;45.91;98895.09;5070663;28;20045;-67
2022/08/14 07:12:57;;;;;;;9.05;4.28;;;;;;;23.36;45.40;98889.25;5089454;28;20044;-66
2022/08/14 07:15:23;;;;;;;7.13;4.43;;;;;;;23.63;43.54;98886.16;5088622;28;20048;-66
2022/08/14 07:17:51;;;;;;;6.65;3.88;;;;;;;23.78;43.83;98889.78;5089481;28;20052;-65
2022/08/14 07:20:19;;;;;;;4.45;4.00;;;;;;;23.93;43.54;98895.19;5088978;28;20144;-68
2022/08/14 07:22:46;;;;;;;7.80;4.65;;;;;;;24.11;42.77;98890.28;5089615;28;20052;-69
2022/08/14 07:25:13;;;;;;;5.22;3.38;;;;;;;24.32;41.51;98886.03;5088750;28;20127;-68
2022/08/14 07:27:39;;;;;;;5.80;3.70;;;;;;;24.64;41.80;98895.63;5090489;28;20526;-67
2022/08/14 07:30:07;;;;;;;6.68;4.55;;;;;;;24.83;39.86;98896.84;5090338;28;20051;-67
2022/08/14 07:32:34;;;;;;;6.75;4.30;;;;;;;24.96;40.13;98885.41;5089499;28;20055;-68
2022/08/14 07:35:02;;;;;;;5.25;4.07;;;;;;;25.16;40.20;98885.63;5096525;28;20059;-68
2022/08/14 07:37:28;;;;;;;9.63;4.55;;;;;;;25.27;39.58;98885.97;5104763;28;20150;-67
2022/08/14 07:39:55;;;;;;;7.75;4.22;;;;;;;25.44;39.98;98881.16;5099011;28;20055;-65
2022/08/14 07:42:22;;;;;;;11.57;3.92;;;;;;;25.63;38.86;98885.06;5093314;28;20048;-66
2022/08/14 07:44:49;;;;;;;6.97;4.28;;;;;;;25.77;38.39;98875.22;5092439;28;20125;-68
2022/08/14 07:47:15;;;;;;;5.10;4.60;;;;;;;25.90;38.28;98874.50;5093160;28;20138;-67
2022/08/14 07:49:45;;;;;;;8.07;4.43;;;;;;;26.18;38.16;98862.84;5092799;28;20055;-67
2022/08/14 07:52:13;;;;;;;5.38;4.28;;;;;;;26.23;37.77;98861.19;5092381;28;20063;-66
2022/08/14 07:54:41;;;;;;;10.40;4.68;;;;;;;26.28;37.76;98861.44;5092196;28;20048;-66
2022/08/14 07:57:07;;;;;;;7.38;4.15;;;;;;;26.55;37.76;98872.41;5092833;28;20127;-65
2022/08/14 07:59:34;;;;;;;13.32;3.80;;;;;;;26.86;36.76;98868.38;5092529;28;20048;-68
2022/08/14 08:02:03;;;;;;;5.95;4.35;;;;;;;27.01;37.13;98873.63;5072361;28;20131;-66
2022/08/14 08:04:31;;;;;;;7.20;4.28;;;;;;;26.99;37.06;98876.53;5074174;28;20040;-65
2022/08/14 08:06:59;;;;;;;5.30;4.03;;;;;;;27.08;37.03;98875.31;5075664;28;20702;-67
2022/08/14 08:09:31;;;;;;;8.27;3.88;;;;;;;27.25;37.57;98869.56;5092981;28;20052;-66
2022/08/14 08:11:58;;;;;;;5.25;4.10;;;;;;;27.59;36.34;98880.22;5093013;28;20052;-66
2022/08/14 08:14:26;;;;;;;6.03;4.18;;;;;;;27.80;35.79;98875.63;5090736;28;20052;-66
2022/08/14 08:16:52;;;;;;;4.30;3.65;;;;;;;27.90;34.68;98880.63;5090132;28;20048;-66
2022/08/14 08:19:19;;;;;;;11.10;4.32;;;;;;;28.04;34.46;98880.41;5092122;28;20052;-68
2022/08/14 08:21:46;;;;;;;8.23;3.83;;;;;;;28.19;34.60;98880.19;5092145;28;20449;-67
2022/08/14 08:24:12;;;;;;;8.25;3.53;;;;;;;28.28;34.41;98880.81;5091716;28;20172;-66
2022/08/14 08:26:40;;;;;;;4.45;3.88;;;;;;;28.23;33.24;98875.16;5092354;28;20105;-67
2022/08/14 08:29:08;;;;;;;7.97;4.03;;;;;;;28.24;33.74;98871.41;5086806;28;20051;-67
2022/08/14 08:31:46;;;;;;;4.95;3.90;;;;;;;28.25;32.95;98868.47;5091496;28;20051;-67
2022/08/14 08:34:13;;;;;;;4.53;3.85;;;;;;;28.32;33.71;98865.75;5097681;28;20477;-66
2022/08/14 08:36:40;;;;;;;6.13;3.30;;;;;;;28.48;33.93;98859.06;5095879;28;20101;-67
2022/08/14 08:39:07;;;;;;;4.60;3.58;;;;;;;28.52;33.66;98863.00;5092106;28;20466;-66
2022/08/14 08:41:41;;;;;;;5.55;4.30;;;;;;;28.60;33.26;98860.06;5091956;28;20048;-66
2022/08/14 08:44:08;;;;;;;7.35;4.93;;;;;;;28.63;32.74;98865.06;5091369;28;20055;-69
2022/08/14 08:46:34;;;;;;;12.75;4.75;;;;;;;28.72;33.17;98862.09;5092090;28;20052;-66
2022/08/14 08:49:01;;;;;;;7.93;4.22;;;;;;;28.79;32.98;98855.59;5091875;28;20058;-67
2022/08/14 08:51:29;;;;;;;8.25;4.35;;;;;;;28.93;33.11;98852.81;5091618;28;20397;-67
2022/08/14 08:53:57;;;;;;;14.20;8.45;;;;;;;28.94;32.42;98854.47;5090910;28;20050;-66
2022/08/14 08:56:37;;;;;;;11.02;4.10;;;;;;;28.92;31.56;98854.72;5092110;28;20048;-66
2022/08/14 08:59:20;;;;;;;6.35;3.08;;;;;;;29.15;31.91;98837.06;5092060;28;20044;-66
2022/08/14 09:01:51;;;;;;;4.70;3.35;;;;;;;29.35;31.30;98840.44;5074668;28;20047;-67
2022/08/14 09:04:18;;;;;;;5.80;4.25;;;;;;;29.54;29.75;98833.22;5082968;28;20108;-65
2022/08/14 09:06:45;;;;;;;6.00;3.33;;;;;;;29.61;30.07;98831.28;5091401;28;20048;-67
2022/08/14 09:09:22;;;;;;;7.63;3.85;;;;;;;29.57;30.08;98832.75;5091558;28;20148;-67
2022/08/14 09:11:49;;;;;;;7.30;3.78;;;;;;;29.70;29.80;98831.84;5091490;28;20040;-66
2022/08/14 09:14:17;;;;;;;5.15;3.85;;;;;;;29.82;29.15;98838.19;5090792;28;20541;-67
2022/08/14 09:16:44;;;;;;;4.15;3.08;;;;;;;30.19;28.36;98830.09;5091035;28;20056;-68
2022/08/14 09:19:11;;;;;;;7.43;3.08;;;;;;;30.41;26.58;98833.22;5091156;28;20044;-66
2022/08/14 09:21:39;;;;;;;5.72;3.08;;;;;;;30.65;25.37;98826.00;5091089;28;20044;-68
2022/08/14 09:24:07;;;;;;;5.70;3.58;;;;;;;30.88;25.80;98819.84;5090584;28;20052;-69
2022/08/14 09:26:33;;;;;;;5.18;2.72;;;;;;;31.33;24.58;98816.69;5091053;28;20048;-67
2022/08/14 09:29:00;;;;;;;6.15;3.67;;;;;;;31.91;24.22;98808.78;5102772;28;20040;-66
2022/08/14 09:31:29;;;;;;;4.97;2.92;;;;;;;32.43;23.57;98806.09;5107119;28;20067;-67
2022/08/14 09:34:07;;;;;;;3.30;2.67;;;;;;;32.93;23.06;98803.56;5090450;28;20415;-69
2022/08/14 09:37:07;;;;;;;2.92;2.42;;;;;;;33.60;21.75;98798.44;5091019;28;20143;-67
2022/08/14 09:39:45;;;;;;;4.45;3.03;;;;;;;34.37;21.78;98794.88;5090779;28;20569;-67
2022/08/14 09:42:28;;;;;;;8.45;3.28;;;;;;;34.28;20.59;98788.19;5090957;28;20052;-67
2022/08/14 09:45:09;;;;;;;4.35;3.00;;;;;;;33.74;21.36;98792.38;5090167;28;20139;-67
2022/08/14 09:47:48;;;;;;;3.75;2.75;;;;;;;33.51;21.75;98787.06;5090693;28;20054;-67
2022/08/14 09:50:20;;;;;;;5.13;3.63;;;;;;;34.63;21.00;98785.06;5091165;28;20043;-66
2022/08/14 09:52:51;;;;;;;3.45;2.70;;;;;;;35.72;20.43;98787.72;5090206;28;20051;-67
2022/08/14 09:55:18;;;;;;;3.95;3.25;;;;;;;35.11;20.08;98780.66;5089987;28;20072;-68
2022/08/14 09:57:45;;;;;;;4.55;3.10;;;;;;;35.14;20.79;98771.91;5090722;28;20415;-67
2022/08/14 10:00:15;;;;;;;4.30;3.90;;;;;;;35.43;20.48;98771.59;5085567;28;20155;-68
2022/08/14 10:02:53;;;;;;;4.50;3.33;;;;;;;36.45;19.67;98772.19;5069806;28;20102;-68
2022/08/14 10:05:32;;;;;;;6.03;3.53;;;;;;;37.23;19.48;98771.25;5069340;28;20079;-67
2022/08/14 10:08:00;;;;;;;3.50;3.03;;;;;;;37.62;18.64;98762.44;5070236;28;20048;-67
2022/08/14 10:10:33;;;;;;;4.40;3.28;;;;;;;38.02;18.84;98760.72;5072846;28;20113;-67
2022/08/14 10:13:01;;;;;;;4.82;3.85;;;;;;;38.55;18.04;98757.47;5070053;28;20052;-67
2022/08/14 10:15:30;;;;;;;6.07;3.45;;;;;;;38.36;16.87;98752.56;5088691;28;20071;-68
2022/08/14 10:18:08;;;;;;;4.95;3.22;;;;;;;36.72;18.59;98746.44;5090074;28;20052;-67
2022/08/14 10:20:39;;;;;;;5.28;3.20;;;;;;;36.67;18.45;98749.19;5090588;28;20166;-67
2022/08/14 10:23:14;;;;;;;5.55;3.10;;;;;;;37.39;17.90;98736.34;5088420;28;20437;-67
2022/08/14 10:25:43;;;;;;;3.50;2.97;;;;;;;37.88;17.84;98710.94;5098001;28;20044;-67
2022/08/14 10:28:14;;;;;;;4.53;3.17;;;;;;;37.82;18.04;98739.56;5090178;28;20048;-67
2022/08/14 10:30:42;;;;;;;5.35;3.13;;;;;;;38.05;17.48;98735.38;5090215;28;20063;-68
2022/08/14 10:33:09;;;;;;;4.28;3.83;;;;;;;38.37;17.44;98739.63;5089791;28;20043;-67
2022/08/14 10:35:41;;;;;;;4.90;3.47;;;;;;;38.28;17.21;98741.34;5089239;28;20642;-67
2022/08/14 10:38:09;;;;;;;13.02;3.70;;;;;;;38.54;16.72;98744.78;5090319;28;20412;-68
2022/08/14 10:40:37;;;;;;;9.20;3.55;;;;;;;38.80;16.81;98739.94;5090248;28;20093;-67
2022/08/14 10:43:15;;;;;;;5.47;3.25;;;;;;;38.51;16.47;98734.34;5085424;28;20415;-67
2022/08/14 10:45:53;;;;;;;5.15;3.00;;;;;;;37.21;17.54;98732.22;5089785;28;20079;-67
2022/08/14 10:48:21;;;;;;;11.90;3.35;;;;;;;36.10;18.31;98729.78;5089880;28;20492;-66
2022/08/14 10:50:50;;;;;;;4.22;2.88;;;;;;;35.90;18.22;98725.00;5089990;28;20054;-66
2022/08/14 10:53:27;;;;;;;3.45;2.97;;;;;;;35.92;18.34;98715.69;5089114;28;20048;-67
2022/08/14 10:55:58;;;;;;;5.35;3.15;;;;;;;36.13;17.88;98702.91;5089078;28;20048;-67
2022/08/14 10:58:29;;;;;;;5.43;3.67;;;;;;;36.19;17.94;98699.91;5089722;28;20054;-68
2022/08/14 11:00:57;;;;;;;17.17;3.30;;;;;;;36.10;17.92;98696.03;5078567;28;20051;-66
2022/08/14 11:03:25;;;;;;;4.57;3.60;;;;;;;35.82;18.12;98698.09;5069368;28;20516;-67
2022/08/14 11:05:52;;;;;;;6.10;3.13;;;;;;;35.55;18.03;98692.72;5068616;28;20048;-65
2022/08/14 11:08:31;;;;;;;6.97;2.63;;;;;;;35.14;18.50;98697.09;5069093;28;20049;-66
2022/08/14 11:11:00;;;;;;;4.90;3.03;;;;;;;34.99;17.98;98698.59;5082383;28;20130;-66
2022/08/14 11:13:29;;;;;;;3.35;2.63;;;;;;;34.66;17.51;98691.50;5089331;28;20040;-69
2022/08/14 11:15:59;;;;;;;4.30;2.50;;;;;;;33.85;18.87;98694.91;5092654;28;20051;-68
2022/08/14 11:18:29;;;;;;;5.35;2.95;;;;;;;33.60;19.04;98692.69;5095364;28;20139;-68
2022/08/14 11:20:59;;;;;;;3.17;2.50;;;;;;;33.76;19.79;98675.38;5105439;28;20141;-65
2022/08/14 11:23:27;;;;;;;4.45;2.30;;;;;;;33.90;18.97;98681.31;5115548;28;20048;-68
2022/08/14 11:25:57;;;;;;;3.70;2.83;;;;;;;33.96;19.72;98687.66;5073797;28;20052;-68
2022/08/14 11:28:26;;;;;;;2.90;2.55;;;;;;;33.18;20.44;98686.81;5075579;28;20131;-68
2022/08/14 11:30:55;;;;;;;4.63;2.85;;;;;;;32.73;20.80;98683.06;5076069;28;20075;-68
2022/08/14 11:33:23;;;;;;;3.53;2.53;;;;;;;32.68;20.60;98681.06;5074870;28;20064;-67
2022/08/14 11:35:51;;;;;;;7.95;2.63;;;;;;;33.01;21.06;98670.44;5072620;28;20188;-66
2022/08/14 11:38:18;;;;;;;3.25;2.70;;;;;;;33.28;20.83;98678.81;5079615;28;20048;-67
2022/08/14 11:40:46;;;;;;;4.72;2.60;;;;;;;33.59;20.29;98673.78;5093774;28;20044;-67
2022/08/14 11:43:13;;;;;;;5.63;2.72;;;;;;;33.67;20.77;98666.00;5093630;28;20588;-69
2022/08/14 11:45:48;;;;;;;5.35;3.05;;;;;;;33.38;20.40;98659.00;5092457;28;20439;-69
2022/08/14 11:48:16;;;;;;;4.13;3.05;;;;;;;33.40;19.70;98654.94;5093235;28;20102;-69
2022/08/14 11:50:44;;;;;;;3.30;2.88;;;;;;;33.26;20.16;98650.91;5093342;28;20537;-67
2022/08/14 11:53:25;;;;;;;4.38;2.53;;;;;;;33.35;19.70;98646.63;5092420;28;20048;-68
2022/08/14 11:55:57;;;;;;;2.72;2.22;;;;;;;33.38;19.95;98648.91;5092553;28;20044;-67